Latest Weather Observations for Bradshaw

IDD60801

Issued at 7:01 pm CST Thursday 2 July 2015 (issued every 30 minutes, with the page automatically refreshed every 10 minutes)

About weather observations | Map of weather stations | Latest weather observations for NT | Other Formats
Station Details ID: 014954 Name: BRADSHAW Lat: -14.94 Lon: 130.81 Height: 75.0 m
Data from the previous 72 hours. | See also: Recent months at Bradshaw
Date/Time
CST
Temp
°C
App
Temp
°C
Dew
Point
Rel
Hum
%
Delta-T
°C
Wind Press
QNH
hPa
Press
MSL
hPa
Rain
since 9 am
mm
Dir
 
Spd
km/h
Gust
km/h
Spd
kts
Gust
kts
02/07:00pm 28.1 26.8 9.9 32 10.2 SE 7 9 4 5 1015.7 - 0.0
02/06:30pm 29.3 27.2 9.9 30 10.9 SE 11 15 6 8 1015.4 - 0.0
02/06:00pm 30.4 26.8 9.8 28 11.7 SE 19 26 10 14 1015.2 1015.0 0.0
02/05:30pm 31.0 27.6 10.4 28 11.8 SE 19 22 10 12 1014.9 - 0.0
02/05:00pm 31.3 28.7 10.6 28 11.9 SSE 15 20 8 11 1014.7 - 0.0
02/04:30pm 31.6 28.1 10.3 27 12.2 ESE 19 28 10 15 1014.7 - 0.0
02/04:00pm 31.2 27.6 10.0 27 12.1 SSE 19 30 10 16 1014.8 - 0.0
02/03:30pm 31.2 27.8 10.5 28 11.9 E 19 32 10 17 1015.0 - 0.0
02/03:00pm 31.7 29.0 10.4 27 12.2 ESE 15 26 8 14 1015.4 1015.2 0.0
02/02:30pm 31.6 27.7 10.9 28 12.0 E 22 32 12 17 1015.9 - 0.0
02/02:00pm 31.1 27.6 11.0 29 11.6 SE 20 33 11 18 1016.4 - 0.0
02/01:30pm 30.9 27.7 11.8 31 11.2 E 20 35 11 19 1017.0 - 0.0
02/01:00pm 30.1 27.3 12.5 34 10.4 ESE 19 26 10 14 1017.5 - 0.0
02/12:30pm 29.7 27.2 12.2 34 10.3 ESE 17 30 9 16 1018.1 - 0.0
02/12:00pm 29.3 25.2 12.7 36 9.8 E 26 39 14 21 1018.8 1018.6 0.0
02/11:30am 29.0 25.4 13.2 37 9.4 ESE 24 41 13 22 1019.4 - 0.0
02/11:00am 28.7 25.5 13.0 38 9.3 ESE 22 33 12 18 1019.6 - 0.0
02/10:30am 27.7 24.3 13.6 42 8.4 E 24 35 13 19 1020.0 - 0.0
02/10:00am 27.4 24.3 13.4 42 8.3 E 22 30 12 16 1020.2 - 0.0
02/09:30am 26.4 22.5 12.1 41 8.3 E 24 35 13 19 1020.3 - 0.0
02/09:00am 25.8 21.9 10.8 39 8.4 E 22 30 12 16 1020.2 1020.0 0.0
02/08:30am 25.3 21.9 10.4 39 8.3 E 19 28 10 15 1020.0 - 0.0
02/08:00am 23.8 24.3 11.5 46 6.9 CALM 0 6 0 3 1019.6 - 0.0
02/07:30am 21.4 21.8 11.1 52 5.7 CALM 0 2 0 1 1019.3 - 0.0
02/07:00am 21.7 20.8 10.5 49 6.1 NNE 6 7 3 4 1019.0 - 0.0
02/06:30am 23.6 22.5 10.6 44 7.2 E 7 11 4 6 1018.8 - 0.0
02/06:00am 23.9 22.4 10.6 43 7.4 E 9 15 5 8 1018.5 1018.3 0.0
02/05:30am 23.6 22.2 11.0 45 7.0 ESE 9 11 5 6 1018.2 - 0.0
02/05:00am 22.8 22.4 11.2 48 6.5 ENE 4 7 2 4 1018.1 - 0.0
02/04:30am 23.0 22.4 11.7 49 6.4 NNE 6 9 3 5 1018.0 - 0.0
02/04:00am 22.3 21.5 11.7 51 6.0 SE 7 7 4 4 1017.8 - 0.0
02/03:30am 22.4 22.2 11.8 51 6.0 SE 4 7 2 4 1018.0 - 0.0
02/03:00am 21.9 22.5 11.9 53 5.6 CALM 0 0 0 0 1018.0 1017.8 0.0
02/02:30am 21.3 21.9 11.9 55 5.3 CALM 0 4 0 2 1018.1 - 0.0
02/02:00am 21.3 22.0 12.2 56 5.1 CALM 0 0 0 0 1018.2 - 0.0
02/01:30am 22.0 22.7 12.3 54 5.5 CALM 0 0 0 0 1018.4 - 0.0
02/01:00am 23.8 23.2 11.8 47 6.8 ENE 6 7 3 4 1018.4 - 0.0
02/12:30am 24.6 24.1 12.2 46 7.1 ENE 6 7 3 4 1018.4 - 0.0
02/12:00am 23.3 22.8 12.0 49 6.4 ENE 6 7 3 4 1018.5 1018.3 0.0
 
Date/Time
CST
Temp
°C
App
Temp
°C
Dew
Point
Rel
Hum
%
Delta-T
°C
Wind Press
QNH
hPa
Press
MSL
hPa
Rain
since 9 am
mm
Dir
 
Spd
km/h
Gust
km/h
Spd
kts
Gust
kts
01/11:30pm 24.1 24.5 12.4 48 6.7 ENE 2 9 1 5 1018.5 - 0.0
01/11:00pm 22.4 22.1 11.5 50 6.1 ENE 4 9 2 5 1018.7 - 0.0
01/10:30pm 23.4 23.2 11.8 48 6.6 E 4 7 2 4 1018.6 - 0.0
01/10:00pm 23.5 23.8 10.9 45 7.0 CALM 0 0 0 0 1018.5 - 0.0
01/09:30pm 24.7 24.9 10.6 41 7.9 CALM 0 0 0 0 1018.4 - 0.0
01/09:00pm 26.5 25.6 10.6 37 8.9 ESE 6 7 3 4 1018.1 1017.9 0.0
01/08:30pm 27.9 26.1 11.0 35 9.6 E 11 13 6 7 1017.7 - 0.0
01/08:00pm 28.8 26.8 11.4 34 10.0 ESE 13 17 7 9 1017.3 - 0.0
01/07:30pm 29.0 26.5 11.1 33 10.3 ESE 15 22 8 12 1016.9 - 0.0
01/07:00pm 29.6 26.6 10.7 31 10.8 ESE 17 24 9 13 1016.5 - 0.0
01/06:30pm 30.0 27.1 11.0 31 10.9 ESE 17 22 9 12 1016.1 - 0.0
01/06:00pm 30.8 27.8 10.7 29 11.6 E 17 28 9 15 1015.8 1015.6 0.0
01/05:30pm 31.0 27.5 10.9 29 11.6 E 20 28 11 15 1015.7 - 0.0
01/05:00pm 32.4 30.1 10.4 26 12.7 E 13 20 7 11 1015.6 - 0.0
01/04:30pm 32.1 29.9 10.7 27 12.4 ESE 13 24 7 13 1015.4 - 0.0
01/04:00pm 31.8 27.8 10.5 27 12.3 ESE 22 32 12 17 1015.5 - 0.0
01/03:30pm 32.0 29.0 10.7 27 12.3 E 17 26 9 14 1015.6 - 0.0
01/03:00pm 32.0 28.8 11.2 28 12.1 SE 19 32 10 17 1016.0 1015.8 0.0
01/02:30pm 30.8 27.4 11.2 30 11.4 E 20 32 11 17 1016.5 - 0.0
01/02:00pm 30.7 27.3 11.1 30 11.3 E 20 28 11 15 1017.0 - 0.0
01/01:30pm 31.0 27.8 11.9 31 11.2 ESE 20 32 11 17 1017.6 - 0.0
01/01:00pm 31.3 28.9 12.6 31 11.1 E 17 28 9 15 1018.1 - 0.0
01/12:30pm 30.8 28.0 12.7 33 10.7 E 19 30 10 16 1018.8 - 0.0
01/12:00pm 30.0 27.4 12.0 33 10.5 E 17 30 9 16 1019.4 1019.2 0.0
01/11:30am 29.4 25.9 12.3 34 10.0 E 22 30 12 16 1019.9 - 0.0
01/11:00am 28.5 25.6 12.4 37 9.4 ESE 19 28 10 15 1020.3 - 0.0
01/10:30am 28.1 25.5 13.2 39 8.8 E 19 24 10 13 1020.8 - 0.0
01/10:00am 27.6 25.1 12.4 39 8.9 E 17 24 9 13 1020.8 - 0.0
01/09:30am 26.8 24.3 10.9 37 9.0 E 15 20 8 11 1020.9 - 0.0
01/09:00am 25.7 22.2 10.3 38 8.6 E 19 24 10 13 1020.8 1020.5 0.0
01/08:30am 25.0 22.2 10.1 39 8.3 E 15 22 8 12 1020.4 - 0.0
01/08:00am 23.5 21.4 9.9 42 7.5 ENE 11 15 6 8 1020.2 - 0.0
01/07:30am 22.9 20.4 9.7 43 7.2 E 13 20 7 11 1019.9 - 0.0
01/07:00am 22.6 19.9 9.0 42 7.3 E 13 20 7 11 1019.6 - 0.0
01/06:30am 22.7 20.0 9.1 42 7.3 ENE 13 20 7 11 1019.2 - 0.0
01/06:00am 22.9 20.2 9.0 41 7.5 ENE 13 19 7 10 1018.9 1018.7 0.0
01/05:30am 23.1 20.0 8.8 40 7.7 E 15 20 8 11 1018.8 - 0.0
01/05:00am 23.3 20.0 8.2 38 8.0 E 15 22 8 12 1018.6 - 0.0
01/04:30am 23.8 20.5 8.2 37 8.3 E 15 24 8 13 1018.3 - 0.0
01/04:00am 22.7 21.2 9.1 42 7.3 ENE 7 17 4 9 1018.4 - 0.0
01/03:30am 19.4 17.5 7.5 46 6.1 N 7 11 4 6 1018.2 - 0.0
01/03:00am 18.5 17.2 7.6 49 5.5 N 4 7 2 4 1018.1 1017.9 0.0
01/02:30am 18.6 16.9 7.4 48 5.7 N 6 7 3 4 1018.2 - 0.0
01/02:00am 19.4 17.5 6.5 43 6.5 NW 6 7 3 4 1018.2 - 0.0
01/01:30am 19.4 18.0 7.2 45 6.2 NW 4 7 2 4 1018.2 - 0.0
01/01:00am 20.0 19.0 5.6 39 7.1 CALM 0 0 0 0 1018.2 - 0.0
01/12:30am 20.6 19.2 7.2 42 6.9 NW 4 7 2 4 1018.1 - 0.0
01/12:00am 20.6 19.0 6.5 40 7.1 WSW 4 11 2 6 1018.0 1017.8 0.0
 
Date/Time
CST
Temp
°C
App
Temp
°C
Dew
Point
Rel
Hum
%
Delta-T
°C
Wind Press
QNH
hPa
Press
MSL
hPa
Rain
since 9 am
mm
Dir
 
Spd
km/h
Gust
km/h
Spd
kts
Gust
kts
30/11:30pm 22.5 21.1 7.1 37 8.0 NE 4 7 2 4 1018.0 - 0.0
30/11:00pm 23.7 21.7 7.3 35 8.6 E 7 13 4 7 1018.1 - 0.0
30/10:30pm 23.4 22.0 7.1 35 8.5 NE 4 9 2 5 1018.1 - 0.0
30/10:00pm 23.5 21.5 7.2 35 8.5 ENE 7 9 4 5 1017.9 - 0.0
30/09:30pm 20.7 19.2 6.6 40 7.2 NNE 4 9 2 5 1017.8 - 0.0
30/09:00pm 21.4 20.3 4.9 34 8.1 CALM 0 0 0 0 1017.5 1017.3 0.0
30/08:30pm 22.4 20.7 5.8 34 8.4 NE 4 7 2 4 1017.1 - 0.0
30/08:00pm 24.1 23.1 5.5 30 9.4 CALM 0 0 0 0 1016.7 - 0.0
30/07:30pm 26.3 24.6 4.1 24 11.1 ESE 2 6 1 3 1016.3 - 0.0
30/07:00pm 28.1 25.2 4.4 22 12.1 SE 9 9 5 5 1015.9 - 0.0
30/06:30pm 29.6 26.6 4.3 20 13.0 SE 9 13 5 7 1015.6 - 0.0
30/06:00pm 30.9 26.7 3.8 18 13.9 SE 15 20 8 11 1015.3 1015.1 0.0
30/05:30pm 31.4 26.7 3.4 17 14.3 ESE 17 26 9 14 1015.2 - 0.0
30/05:00pm 32.1 27.6 4.0 17 14.6 ESE 17 26 9 14 1015.0 - 0.0
30/04:30pm 32.0 27.3 3.1 16 14.8 ESE 17 28 9 15 1015.0 - 0.0
30/04:00pm 32.0 27.8 3.9 17 14.6 E 15 22 8 12 1015.1 - 0.0
30/03:30pm 32.4 28.7 4.2 17 14.7 E 13 20 7 11 1015.1 - 0.0
30/03:00pm 31.3 26.3 3.4 17 14.3 SE 19 32 10 17 1015.5 1015.3 0.0
30/02:30pm 31.5 26.5 3.5 17 14.4 ESE 19 33 10 18 1015.9 - 0.0
30/02:00pm 31.5 26.1 4.3 18 14.2 ESE 22 28 12 15 1016.4 - 0.0
30/01:30pm 30.8 26.0 4.5 19 13.7 SE 19 28 10 15 1016.9 - 0.0
30/01:00pm 30.6 25.8 5.8 21 13.2 SE 20 30 11 16 1017.5 - 0.0
30/12:30pm 30.6 25.5 5.8 21 13.2 E 22 28 12 15 1018.1 - 0.0
30/12:00pm 29.9 24.4 5.9 22 12.7 E 24 32 13 17 1018.5 1018.3 0.0
30/11:30am 29.3 24.6 6.0 23 12.3 ESE 20 30 11 16 1018.8 - 0.0
30/11:00am 28.9 25.7 6.9 25 11.8 ESE 13 24 7 13 1019.2 - 0.0
30/10:30am 26.7 24.2 6.7 28 10.5 SSE 9 13 5 7 1019.7 - 0.0
30/10:00am 25.5 23.7 7.1 31 9.7 S 6 11 3 6 1019.9 - 0.0
30/09:30am 23.7 21.6 6.5 33 8.9 S 7 15 4 8 1019.9 - 0.0
30/09:00am 22.3 20.5 7.3 38 7.8 SSW 6 9 3 5 1019.9 1019.7 0.0
30/08:30am 19.9 19.4 7.9 46 6.2 CALM 0 0 0 0 1019.6 - 0.0
30/08:00am 17.3 16.6 8.7 57 4.4 W 2 7 1 4 1019.2 - 0.0
30/07:30am 14.3 12.6 7.6 64 3.3 N 6 9 3 5 1018.8 - 0.0
30/07:00am 14.7 12.8 7.5 62 3.6 N 7 9 4 5 1018.4 - 0.0
30/06:30am 14.7 14.1 7.5 62 3.6 CALM 0 0 0 0 1018.2 - 0.0
30/06:00am 14.1 13.1 7.4 64 3.3 N 2 7 1 4 1018.0 1017.8 0.0
30/05:30am 15.6 13.3 7.6 59 4.0 N 9 11 5 6 1017.8 - 0.0
30/05:00am 15.6 13.7 6.6 55 4.4 N 6 7 3 4 1017.7 - 0.0
30/04:30am 16.1 14.1 6.3 52 4.8 NNE 6 7 3 4 1017.7 - 0.0
30/04:00am 16.4 14.9 6.8 53 4.7 N 4 9 2 5 1017.8 - 0.0
30/03:30am 17.1 15.1 7.2 52 5.0 NE 7 11 4 6 1017.6 - 0.0
30/03:00am 17.0 16.2 6.5 50 5.2 CALM 0 0 0 0 1017.6 1017.4 0.0
30/02:30am 17.0 14.8 5.3 46 5.6 N 6 7 3 4 1017.7 - 0.0
30/02:00am 16.8 15.3 6.9 52 4.9 SSW 4 9 2 5 1017.9 - 0.0
30/01:30am 17.3 15.1 6.2 48 5.5 NW 7 11 4 6 1017.9 - 0.0
30/01:00am 18.2 16.4 7.3 49 5.5 N 6 9 3 5 1017.9 - 0.0
30/12:30am 18.5 16.4 6.7 46 5.9 N 7 9 4 5 1017.9 - 0.0
30/12:00am 19.3 18.6 7.1 45 6.2 CALM 0 0 0 0 1018.1 1017.9 0.0
 
Date/Time
CST
Temp
°C
App
Temp
°C
Dew
Point
Rel
Hum
%
Delta-T
°C
Wind Press
QNH
hPa
Press
MSL
hPa
Rain
since 9 am
mm
Dir
 
Spd
km/h
Gust
km/h
Spd
kts
Gust
kts
29/11:30pm 20.7 18.9 7.3 42 6.9 W 6 9 3 5 1018.1 - 0.0
29/11:00pm 21.7 19.8 6.8 38 7.6 NE 6 11 3 6 1018.0 - 0.0
29/10:30pm 21.9 20.3 6.2 36 8.0 NE 4 9 2 5 1017.8 - 0.0
29/10:00pm 23.3 20.9 7.0 35 8.5 NE 9 13 5 7 1017.7 - 0.0
29/09:30pm 21.7 19.7 4.3 32 8.5 ENE 4 6 2 3 1017.6 - 0.0
29/09:00pm 23.7 22.4 6.0 32 9.0 NNE 2 7 1 4 1017.5 1017.3 0.0
29/08:30pm 24.9 22.7 6.1 30 9.7 NE 7 9 4 5 1017.2 - 0.0
29/08:00pm 24.4 22.0 5.2 29 9.7 ENE 7 9 4 5 1016.9 - 0.0
29/07:30pm 26.5 24.0 4.9 25 11.0 ENE 7 9 4 5 1016.5 - 0.0

Other Formats:

Comma delimited format used in spreadsheet applications
http://www.bom.gov.au/fwo/IDD60801/IDD60801.94130.axf

JavaScript Object Notation format (JSON) in row-major order
http://www.bom.gov.au/fwo/IDD60801/IDD60801.94130.json